createdAt,value
2022-07-29T00:00:16.151Z,22.33
2022-07-29T00:01:19.192Z,22.36
2022-07-29T00:02:21.387Z,22.38
2022-07-29T00:03:23.043Z,22.40
2022-07-29T00:04:24.632Z,22.37
2022-07-29T00:05:26.555Z,22.36
2022-07-29T00:06:28.039Z,22.37
2022-07-29T00:07:29.531Z,22.36
2022-07-29T00:08:30.972Z,22.34
2022-07-29T00:09:33.899Z,22.35
2022-07-29T00:10:52.876Z,22.37
2022-07-29T00:11:58.093Z,22.38
2022-07-29T00:12:59.599Z,22.36
2022-07-29T00:14:01.187Z,22.35
2022-07-29T00:15:03.260Z,22.34
2022-07-29T00:16:05.431Z,22.32
2022-07-29T00:17:07.051Z,22.31
2022-07-29T00:18:08.559Z,22.32
2022-07-29T00:19:10.058Z,22.35
2022-07-29T00:20:12.564Z,22.32
2022-07-29T00:21:14.114Z,22.31
2022-07-29T00:22:15.856Z,22.32
2022-07-29T00:23:17.326Z,22.31
2022-07-29T00:24:19.399Z,22.32
2022-07-29T00:25:21.036Z,22.37
2022-07-29T00:26:22.740Z,22.38
2022-07-29T00:27:24.316Z,22.44
2022-07-29T00:28:25.854Z,22.42
2022-07-29T00:29:35.366Z,22.40
2022-07-29T00:30:36.952Z,22.35
2022-07-29T00:31:38.618Z,22.35
2022-07-29T00:32:40.322Z,22.35
2022-07-29T00:33:41.970Z,22.31
2022-07-29T00:35:02.427Z,22.31
2022-07-29T00:36:04.393Z,22.20
2022-07-29T00:37:05.920Z,22.21
2022-07-29T00:38:09.487Z,22.21
2022-07-29T00:39:10.976Z,22.26
2022-07-29T00:40:12.902Z,22.25
2022-07-29T00:41:14.387Z,22.26
2022-07-29T00:42:15.991Z,22.28
2022-07-29T00:43:18.148Z,22.21
2022-07-29T00:44:19.642Z,22.28
2022-07-29T00:45:21.594Z,22.30
2022-07-29T00:46:23.061Z,22.32
2022-07-29T00:47:24.545Z,22.36
2022-07-29T00:48:26.083Z,22.29
2022-07-29T00:49:27.608Z,22.27
2022-07-29T00:50:29.766Z,22.32
2022-07-29T00:51:31.472Z,22.34
2022-07-29T00:52:34.804Z,22.31
2022-07-29T00:53:37.281Z,22.29
2022-07-29T00:54:44.720Z,22.30
2022-07-29T00:55:46.815Z,22.33
2022-07-29T00:56:48.322Z,22.34
2022-07-29T00:57:50.411Z,22.32
2022-07-29T00:58:52.576Z,22.31
2022-07-29T00:59:54.379Z,22.30
2022-07-29T01:00:56.038Z,22.33
2022-07-29T01:01:57.631Z,22.34
2022-07-29T01:02:59.628Z,22.33
2022-07-29T01:04:01.122Z,22.34
2022-07-29T01:05:05.139Z,22.33
2022-07-29T01:06:06.858Z,22.30
2022-07-29T01:07:08.992Z,22.32
2022-07-29T01:08:13.705Z,22.32
2022-07-29T01:09:16.837Z,22.38
2022-07-29T01:10:38.760Z,22.38
2022-07-29T01:11:40.807Z,22.39
2022-07-29T01:12:45.074Z,22.37
2022-07-29T01:13:48.450Z,22.34
2022-07-29T01:14:51.362Z,22.29
2022-07-29T01:16:00.098Z,22.29
2022-07-29T01:17:12.791Z,22.31
2022-07-29T01:18:31.275Z,22.29
2022-07-29T01:20:17.546Z,22.28
2022-07-29T01:21:51.055Z,22.19
2022-07-29T01:23:07.647Z,22.17
2022-07-29T01:24:36.481Z,22.16
2022-07-29T01:25:47.155Z,22.17
2022-07-29T01:27:05.513Z,22.21
2022-07-29T01:28:07.960Z,22.21
2022-07-29T01:29:20.620Z,22.19
2022-07-29T01:30:26.819Z,22.20
2022-07-29T01:31:40.268Z,22.16
2022-07-29T01:33:03.121Z,22.13
2022-07-29T01:34:08.263Z,22.09
2022-07-29T01:35:24.470Z,22.10
2022-07-29T01:36:50.055Z,22.10
2022-07-29T01:37:58.544Z,22.13
2022-07-29T01:39:22.877Z,22.15
2022-07-29T01:40:35.549Z,22.14
2022-07-29T01:41:41.492Z,22.13
2022-07-29T01:42:45.505Z,22.09
2022-07-29T01:43:58.824Z,22.12
2022-07-29T01:45:07.089Z,22.14
2022-07-29T01:46:15.118Z,22.18
2022-07-29T01:47:21.588Z,22.17
2022-07-29T01:48:28.475Z,22.11
2022-07-29T01:49:36.563Z,22.09
2022-07-29T01:50:46.257Z,22.07
2022-07-29T01:51:52.758Z,22.06
2022-07-29T01:52:58.725Z,22.07
2022-07-29T01:54:19.699Z,22.07
2022-07-29T01:55:25.538Z,22.06
2022-07-29T01:56:32.327Z,22.05
2022-07-29T01:57:36.889Z,22.05
2022-07-29T01:58:40.987Z,22.09
2022-07-29T01:59:46.129Z,22.11
2022-07-29T02:00:49.756Z,22.13
2022-07-29T02:01:54.390Z,22.12
2022-07-29T02:02:57.857Z,22.04
2022-07-29T02:04:02.719Z,21.98
2022-07-29T02:05:07.447Z,22.00
2022-07-29T02:06:12.096Z,21.97
2022-07-29T02:07:16.605Z,21.97
2022-07-29T02:08:20.698Z,21.92
2022-07-29T02:09:24.339Z,21.90
2022-07-29T02:10:28.708Z,21.83
2022-07-29T02:11:34.532Z,21.79
2022-07-29T02:12:37.228Z,21.76
2022-07-29T02:13:40.040Z,21.77
2022-07-29T02:14:44.673Z,21.76
2022-07-29T02:15:47.656Z,21.75
2022-07-29T02:16:53.139Z,21.72
2022-07-29T02:18:03.091Z,21.68
2022-07-29T02:19:06.158Z,21.65
2022-07-29T02:20:09.774Z,21.63
2022-07-29T02:21:15.118Z,21.61
2022-07-29T02:22:19.592Z,21.59
2022-07-29T02:23:25.325Z,21.57
2022-07-29T02:24:27.622Z,21.54
2022-07-29T02:25:37.066Z,21.49
2022-07-29T02:26:42.620Z,21.51
2022-07-29T02:27:45.785Z,21.51
2022-07-29T02:28:49.158Z,21.48
2022-07-29T02:29:52.180Z,21.53
2022-07-29T02:30:57.002Z,21.56
2022-07-29T02:32:00.690Z,21.57
2022-07-29T02:33:03.874Z,21.57
2022-07-29T02:34:08.073Z,21.59
2022-07-29T02:35:11.462Z,21.52
2022-07-29T02:36:13.452Z,21.46
2022-07-29T02:37:17.623Z,21.36
2022-07-29T02:38:40.089Z,21.33
2022-07-29T02:39:44.592Z,21.32
2022-07-29T02:40:46.640Z,21.25
2022-07-29T02:41:51.725Z,21.32
2022-07-29T02:42:53.681Z,21.35
2022-07-29T02:43:58.236Z,21.37
2022-07-29T02:44:59.733Z,21.36
2022-07-29T02:46:03.588Z,21.27
2022-07-29T02:47:23.897Z,21.19
2022-07-29T02:48:35.330Z,21.13
2022-07-29T02:49:47.978Z,21.18
2022-07-29T02:50:52.747Z,21.23
2022-07-29T02:51:59.150Z,21.19
2022-07-29T02:53:10.348Z,21.08
2022-07-29T02:54:21.198Z,21.03
2022-07-29T02:55:37.914Z,20.97
2022-07-29T02:56:41.427Z,20.95
2022-07-29T02:57:54.521Z,20.92
2022-07-29T02:59:01.170Z,20.91
2022-07-29T03:00:07.289Z,20.91
2022-07-29T03:01:22.683Z,20.82
2022-07-29T03:02:27.048Z,20.79
2022-07-29T03:03:37.312Z,20.83
2022-07-29T03:04:42.498Z,20.76
2022-07-29T03:05:44.102Z,20.74
2022-07-29T03:06:47.024Z,20.75
2022-07-29T03:08:05.216Z,20.70
2022-07-29T03:09:13.570Z,20.75
2022-07-29T03:10:15.361Z,20.71
2022-07-29T03:11:18.673Z,20.68
2022-07-29T03:12:21.048Z,20.64
2022-07-29T03:13:23.777Z,20.62
2022-07-29T03:14:26.611Z,20.54
2022-07-29T03:15:28.734Z,20.46
2022-07-29T03:16:30.736Z,20.45
2022-07-29T03:17:33.359Z,20.42
2022-07-29T03:18:36.198Z,20.50
2022-07-29T03:19:38.413Z,20.49
2022-07-29T03:20:40.608Z,20.50
2022-07-29T03:21:42.079Z,20.50
2022-07-29T03:22:47.720Z,20.51
2022-07-29T03:23:49.159Z,20.53
2022-07-29T03:24:50.629Z,20.46
2022-07-29T03:25:52.473Z,20.38
2022-07-29T03:26:55.817Z,20.38
2022-07-29T03:27:58.076Z,20.37
2022-07-29T03:28:59.517Z,20.33
2022-07-29T03:30:01.122Z,20.29
2022-07-29T03:31:02.688Z,20.24
2022-07-29T03:32:07.926Z,20.25
2022-07-29T03:33:13.604Z,20.30
2022-07-29T03:34:15.645Z,20.29
2022-07-29T03:35:17.737Z,20.32
2022-07-29T03:36:19.153Z,20.31
2022-07-29T03:37:20.639Z,20.18
2022-07-29T03:38:26.079Z,20.18
2022-07-29T03:39:32.296Z,20.18
2022-07-29T03:40:41.465Z,20.17
2022-07-29T03:41:45.357Z,20.16
2022-07-29T03:42:48.176Z,20.16
2022-07-29T03:43:50.680Z,20.12
2022-07-29T03:44:53.780Z,20.17
2022-07-29T03:45:57.358Z,20.15
2022-07-29T03:47:02.933Z,20.09
2022-07-29T03:48:11.438Z,20.07
2022-07-29T03:49:15.869Z,20.06
2022-07-29T03:50:20.373Z,20.04
2022-07-29T03:51:33.817Z,20.04
2022-07-29T03:52:36.316Z,19.95
2022-07-29T03:53:38.906Z,19.97
2022-07-29T03:54:41.218Z,19.94
2022-07-29T03:55:47.572Z,19.85
2022-07-29T03:56:51.233Z,19.87
2022-07-29T03:57:53.528Z,19.81
2022-07-29T03:58:56.103Z,19.82
2022-07-29T03:59:58.562Z,19.83
2022-07-29T04:01:00.532Z,19.77
2022-07-29T04:02:04.905Z,19.75
2022-07-29T04:03:10.835Z,19.74
2022-07-29T04:04:13.983Z,19.72
2022-07-29T04:05:16.272Z,19.75
2022-07-29T04:06:17.744Z,19.75
2022-07-29T04:07:19.393Z,19.80
2022-07-29T04:08:21.159Z,19.82
2022-07-29T04:09:22.647Z,19.80
2022-07-29T04:10:30.133Z,19.80
2022-07-29T04:11:33.062Z,19.79
2022-07-29T04:12:54.792Z,19.72
2022-07-29T04:13:56.254Z,19.72
2022-07-29T04:14:57.709Z,19.65
2022-07-29T04:15:59.496Z,19.66
2022-07-29T04:17:04.017Z,19.69
2022-07-29T04:18:05.889Z,19.67
2022-07-29T04:19:07.315Z,19.66
2022-07-29T04:20:09.402Z,19.63
2022-07-29T04:21:10.862Z,19.58
2022-07-29T04:22:12.381Z,19.55
2022-07-29T04:23:14.267Z,19.55
2022-07-29T04:24:16.308Z,19.46
2022-07-29T04:25:18.253Z,19.44
2022-07-29T04:26:20.763Z,19.48
2022-07-29T04:27:22.298Z,19.50
2022-07-29T04:28:23.760Z,19.50
2022-07-29T04:29:25.243Z,19.52
2022-07-29T04:30:27.197Z,19.54
2022-07-29T04:31:28.808Z,19.54
2022-07-29T04:32:30.327Z,19.45
2022-07-29T04:33:32.188Z,19.40
2022-07-29T04:34:33.662Z,19.38
2022-07-29T04:35:45.737Z,19.32
2022-07-29T04:36:53.752Z,19.27
2022-07-29T04:37:55.567Z,19.27
2022-07-29T04:38:57.102Z,19.33
2022-07-29T04:39:58.578Z,19.34
2022-07-29T04:41:00.160Z,19.36
2022-07-29T04:42:01.806Z,19.33
2022-07-29T04:43:05.837Z,19.36
2022-07-29T04:44:07.784Z,19.41
2022-07-29T04:45:10.650Z,19.41
2022-07-29T04:46:12.274Z,19.40
2022-07-29T04:47:13.894Z,19.40
2022-07-29T04:48:15.746Z,19.39
2022-07-29T04:49:17.279Z,19.34
2022-07-29T04:50:18.872Z,19.31
2022-07-29T04:51:20.342Z,19.28
2022-07-29T04:52:21.782Z,19.28
2022-07-29T04:53:23.424Z,19.27
2022-07-29T04:54:25.556Z,19.26
2022-07-29T04:55:27.443Z,19.20
2022-07-29T04:56:29.009Z,19.27
2022-07-29T04:57:30.955Z,19.29
2022-07-29T04:58:32.434Z,19.27
2022-07-29T04:59:33.917Z,19.26
2022-07-29T05:00:35.628Z,19.26
2022-07-29T05:01:37.141Z,19.24
2022-07-29T05:02:38.797Z,19.19
2022-07-29T05:03:40.255Z,19.16
2022-07-29T05:04:41.757Z,19.16
2022-07-29T05:05:43.419Z,19.15
2022-07-29T05:06:44.905Z,19.21
2022-07-29T05:07:46.653Z,19.25
2022-07-29T05:08:48.145Z,19.28
2022-07-29T05:09:50.015Z,19.27
2022-07-29T05:10:51.753Z,19.32
2022-07-29T05:11:53.197Z,19.38
2022-07-29T05:12:54.674Z,19.37
2022-07-29T05:13:56.123Z,19.48
2022-07-29T05:14:57.630Z,19.50
2022-07-29T05:15:59.442Z,19.50
2022-07-29T05:17:01.289Z,19.48
2022-07-29T05:18:02.849Z,19.45
2022-07-29T05:19:04.311Z,19.43
2022-07-29T05:20:06.908Z,19.39
2022-07-29T05:21:08.427Z,19.43
2022-07-29T05:22:10.233Z,19.49
2022-07-29T05:23:13.752Z,19.42
2022-07-29T05:24:15.431Z,19.39
2022-07-29T05:25:17.755Z,19.34
2022-07-29T05:26:19.366Z,19.36
2022-07-29T05:27:20.946Z,19.45
2022-07-29T05:28:22.705Z,19.43
2022-07-29T05:29:42.958Z,19.43
2022-07-29T05:30:45.736Z,19.45
2022-07-29T05:31:47.201Z,19.50
2022-07-29T05:32:48.728Z,19.54
2022-07-29T05:33:50.204Z,19.56
2022-07-29T05:34:51.988Z,19.57
2022-07-29T05:35:57.267Z,19.60
2022-07-29T05:37:01.618Z,19.62
2022-07-29T05:38:03.075Z,19.67
2022-07-29T05:39:05.219Z,19.72
2022-07-29T05:40:07.054Z,19.72
2022-07-29T05:41:08.519Z,19.74
2022-07-29T05:42:11.381Z,19.79
2022-07-29T05:43:12.741Z,19.77
2022-07-29T05:44:15.042Z,19.82
2022-07-29T05:45:16.671Z,19.89
2022-07-29T05:46:18.243Z,19.90
2022-07-29T05:47:19.920Z,19.98
2022-07-29T05:48:21.757Z,20.05
2022-07-29T05:49:27.299Z,20.11
2022-07-29T05:50:29.041Z,20.15
2022-07-29T05:51:31.203Z,20.20
2022-07-29T05:52:32.730Z,20.20
2022-07-29T05:53:34.350Z,20.25
2022-07-29T05:54:36.380Z,20.28
2022-07-29T05:55:37.905Z,20.34
2022-07-29T05:56:40.955Z,20.37
2022-07-29T05:57:44.431Z,20.40
2022-07-29T05:58:45.905Z,20.45
2022-07-29T05:59:48.034Z,20.48
2022-07-29T06:00:49.578Z,20.43
2022-07-29T06:01:51.216Z,20.37
2022-07-29T06:02:52.712Z,20.27
2022-07-29T06:03:54.472Z,20.26
2022-07-29T06:04:56.098Z,20.17
2022-07-29T06:05:57.645Z,20.23
2022-07-29T06:06:59.072Z,20.30
2022-07-29T06:08:00.599Z,20.35
2022-07-29T06:09:09.102Z,20.48
2022-07-29T06:10:14.183Z,20.56
2022-07-29T06:11:15.624Z,20.65
2022-07-29T06:12:17.079Z,20.76
2022-07-29T06:13:18.536Z,20.85
2022-07-29T06:14:20.681Z,20.88
2022-07-29T06:15:22.191Z,20.96
2022-07-29T06:16:29.896Z,21.00
2022-07-29T06:17:31.843Z,21.01
2022-07-29T06:18:33.289Z,21.06
2022-07-29T06:19:36.354Z,21.10
2022-07-29T06:20:37.869Z,21.16
2022-07-29T06:21:46.780Z,21.24
2022-07-29T06:22:48.304Z,21.27
2022-07-29T06:23:49.737Z,21.31
2022-07-29T06:24:51.198Z,21.42
2022-07-29T06:25:52.661Z,21.53
2022-07-29T06:26:54.247Z,21.58
2022-07-29T06:27:55.864Z,21.65
2022-07-29T06:28:57.371Z,21.71
2022-07-29T06:29:58.961Z,21.73
2022-07-29T06:31:00.744Z,21.84
2022-07-29T06:32:03.213Z,21.88
2022-07-29T06:33:05.518Z,21.86
2022-07-29T06:34:07.507Z,21.89
2022-07-29T06:35:38.249Z,21.94
2022-07-29T06:36:31.328Z,21.97
2022-07-29T06:37:33.229Z,22.01
2022-07-29T06:38:40.621Z,22.10
2022-07-29T06:39:46.410Z,22.16
2022-07-29T06:41:06.446Z,22.11
2022-07-29T06:42:07.978Z,22.14
2022-07-29T06:43:09.773Z,22.16
2022-07-29T06:44:11.240Z,22.27
2022-07-29T06:45:13.537Z,22.28
2022-07-29T06:46:16.643Z,22.26
2022-07-29T06:47:18.155Z,22.33
2022-07-29T06:48:19.606Z,22.38
2022-07-29T06:49:21.157Z,22.40
2022-07-29T06:50:22.745Z,22.45
2022-07-29T06:51:24.394Z,22.56
2022-07-29T06:52:26.425Z,22.60
2022-07-29T06:53:28.569Z,22.73
2022-07-29T06:54:30.073Z,22.82
2022-07-29T06:55:31.734Z,22.86
2022-07-29T06:56:38.323Z,22.88
2022-07-29T06:57:42.034Z,22.79
2022-07-29T06:58:43.566Z,22.64
2022-07-29T06:59:45.020Z,22.74
2022-07-29T07:00:47.346Z,22.85
2022-07-29T07:01:48.984Z,22.95
2022-07-29T07:02:50.545Z,23.05
2022-07-29T07:03:52.111Z,23.11
2022-07-29T07:04:53.596Z,23.16
2022-07-29T07:05:55.874Z,23.16
2022-07-29T07:06:57.449Z,23.15
2022-07-29T07:07:58.928Z,23.29
2022-07-29T07:09:00.470Z,23.31
2022-07-29T07:10:02.164Z,23.36
2022-07-29T07:11:04.963Z,23.42
2022-07-29T07:12:06.895Z,23.45
2022-07-29T07:13:08.568Z,23.49
2022-07-29T07:14:10.025Z,23.53
2022-07-29T07:15:11.733Z,23.57
2022-07-29T07:16:13.233Z,23.62
2022-07-29T07:17:14.826Z,23.67
2022-07-29T07:18:16.890Z,23.69
2022-07-29T07:19:20.146Z,23.72
2022-07-29T07:20:21.678Z,23.79
2022-07-29T07:21:23.270Z,23.84
2022-07-29T07:22:24.860Z,23.90
2022-07-29T07:23:26.360Z,23.95
2022-07-29T07:24:27.853Z,23.96
2022-07-29T07:25:29.504Z,23.98
2022-07-29T07:26:31.022Z,23.93
2022-07-29T07:27:32.499Z,23.94
2022-07-29T07:28:34.075Z,23.98
2022-07-29T07:29:35.655Z,24.01
2022-07-29T07:30:37.384Z,24.13
2022-07-29T07:31:39.167Z,24.18
2022-07-29T07:32:41.145Z,24.11
2022-07-29T07:33:42.663Z,24.29
2022-07-29T07:34:44.425Z,24.34
2022-07-29T07:35:45.940Z,24.41
2022-07-29T07:36:47.458Z,24.48
2022-07-29T07:37:49.067Z,24.51
2022-07-29T07:38:50.665Z,24.54
2022-07-29T07:39:55.296Z,24.63
2022-07-29T07:40:56.800Z,24.65
2022-07-29T07:41:58.278Z,24.67
2022-07-29T07:42:59.766Z,24.62
2022-07-29T07:44:01.395Z,24.64
2022-07-29T07:45:13.601Z,24.65
2022-07-29T07:46:16.241Z,24.69
2022-07-29T07:47:20.774Z,24.73
2022-07-29T07:48:23.791Z,24.78
2022-07-29T07:49:25.343Z,24.59
2022-07-29T07:50:27.042Z,24.48
2022-07-29T07:51:28.641Z,24.55
2022-07-29T07:52:30.100Z,24.64
2022-07-29T07:53:31.655Z,24.69
2022-07-29T07:54:34.164Z,24.71
2022-07-29T07:56:08.245Z,24.63
2022-07-29T07:57:02.735Z,24.61
2022-07-29T07:58:04.161Z,24.64
2022-07-29T07:59:05.589Z,24.60
2022-07-29T08:00:07.740Z,24.55
2022-07-29T08:01:10.363Z,24.51
2022-07-29T08:02:12.134Z,24.48
2022-07-29T08:03:17.042Z,24.50
2022-07-29T08:04:22.222Z,24.44
2022-07-29T08:05:28.320Z,24.49
2022-07-29T08:06:29.781Z,24.60
2022-07-29T08:07:31.308Z,24.61
2022-07-29T08:08:32.940Z,24.45
2022-07-29T08:09:35.342Z,24.50
2022-07-29T08:10:56.304Z,24.51
2022-07-29T08:12:00.196Z,24.59
2022-07-29T08:13:04.179Z,24.63
2022-07-29T08:14:05.727Z,24.58
2022-07-29T08:15:08.663Z,24.63
2022-07-29T08:16:13.967Z,24.81
2022-07-29T08:17:15.772Z,24.88
2022-07-29T08:18:18.349Z,24.97
2022-07-29T08:19:19.925Z,25.07
2022-07-29T08:20:21.370Z,25.15
2022-07-29T08:21:23.243Z,25.22
2022-07-29T08:22:24.688Z,25.31
2022-07-29T08:23:32.948Z,25.40
2022-07-29T08:24:54.127Z,25.51
2022-07-29T08:25:57.412Z,25.68
2022-07-29T08:26:59.064Z,25.70
2022-07-29T08:28:00.510Z,25.67
2022-07-29T08:29:01.984Z,25.54
2022-07-29T08:30:04.723Z,25.57
2022-07-29T08:31:06.690Z,25.63
2022-07-29T08:32:08.246Z,25.66
2022-07-29T08:33:09.777Z,25.58
2022-07-29T08:34:11.220Z,25.55
2022-07-29T08:35:12.707Z,25.59
2022-07-29T08:36:14.510Z,25.67
2022-07-29T08:37:16.412Z,25.81
2022-07-29T08:38:17.892Z,25.89
2022-07-29T08:39:19.334Z,25.95
2022-07-29T08:40:32.247Z,26.08
2022-07-29T08:41:34.178Z,26.17
2022-07-29T08:42:36.546Z,26.27
2022-07-29T08:43:39.119Z,26.36
2022-07-29T08:44:40.694Z,26.49
2022-07-29T08:45:48.501Z,26.51
2022-07-29T08:46:50.831Z,26.68
2022-07-29T08:47:53.391Z,26.84
2022-07-29T08:48:56.344Z,26.82
2022-07-29T08:49:57.939Z,26.93
2022-07-29T08:51:00.182Z,26.90
2022-07-29T08:52:02.057Z,26.85
2022-07-29T08:53:04.218Z,26.94
2022-07-29T08:54:06.565Z,27.03
2022-07-29T08:55:10.585Z,26.93
2022-07-29T08:56:20.063Z,26.98
2022-07-29T08:57:22.503Z,26.96
2022-07-29T08:58:26.378Z,26.92
2022-07-29T08:59:31.334Z,26.78
2022-07-29T09:00:33.015Z,26.76
2022-07-29T09:01:42.803Z,26.74
2022-07-29T09:02:52.689Z,26.86
2022-07-29T09:03:57.939Z,26.95
2022-07-29T09:05:02.429Z,27.03
2022-07-29T09:06:04.822Z,27.10
2022-07-29T09:07:07.120Z,26.98
2022-07-29T09:08:09.173Z,27.01
2022-07-29T09:09:11.261Z,27.11
2022-07-29T09:10:12.808Z,27.17
2022-07-29T09:11:14.846Z,27.20
2022-07-29T09:12:28.609Z,27.25
2022-07-29T09:13:31.481Z,27.30
2022-07-29T09:14:33.013Z,27.39
2022-07-29T09:15:34.449Z,27.40
2022-07-29T09:16:53.044Z,27.16
2022-07-29T09:17:56.382Z,27.20
2022-07-29T09:18:57.836Z,27.12
2022-07-29T09:20:13.291Z,27.24
2022-07-29T09:21:36.769Z,27.22
2022-07-29T09:22:42.177Z,27.21
2022-07-29T09:24:08.032Z,26.92
2022-07-29T09:25:12.636Z,26.83
2022-07-29T09:26:14.063Z,26.77
2022-07-29T09:27:18.259Z,26.80
2022-07-29T09:28:19.802Z,26.77
2022-07-29T09:29:24.038Z,26.73
2022-07-29T09:30:31.646Z,26.74
2022-07-29T09:31:36.075Z,26.77
2022-07-29T09:32:56.875Z,26.78
2022-07-29T09:34:01.193Z,26.79
2022-07-29T09:35:35.056Z,26.93
2022-07-29T09:36:45.484Z,27.04
2022-07-29T09:37:47.861Z,27.13
2022-07-29T09:38:59.708Z,27.19
2022-07-29T09:40:12.041Z,27.25
2022-07-29T09:41:15.037Z,27.24
2022-07-29T09:42:29.234Z,27.09
2022-07-29T09:43:30.850Z,27.09
2022-07-29T09:44:50.921Z,27.08
2022-07-29T09:45:52.513Z,26.97
2022-07-29T09:47:07.185Z,26.95
2022-07-29T09:48:20.341Z,26.99
2022-07-29T09:49:21.862Z,26.85
2022-07-29T09:50:26.695Z,26.93
2022-07-29T09:51:38.255Z,26.81
2022-07-29T09:52:51.496Z,26.72
2022-07-29T09:53:53.346Z,26.55
2022-07-29T09:55:06.135Z,26.60
2022-07-29T09:56:07.653Z,26.61
2022-07-29T09:57:22.108Z,26.61
2022-07-29T09:58:23.811Z,26.64
2022-07-29T09:59:27.503Z,26.64
2022-07-29T10:00:29.625Z,26.62
2022-07-29T10:01:31.427Z,26.64
2022-07-29T10:02:35.159Z,26.66
2022-07-29T10:03:56.353Z,26.68
2022-07-29T10:04:58.075Z,26.77
2022-07-29T10:06:06.429Z,26.70
2022-07-29T10:07:08.185Z,26.62
2022-07-29T10:08:13.551Z,26.56
2022-07-29T10:09:14.999Z,26.57
2022-07-29T10:10:29.652Z,26.61
2022-07-29T10:11:48.088Z,26.60
2022-07-29T10:13:07.156Z,26.59
2022-07-29T10:14:10.448Z,26.64
2022-07-29T10:15:11.937Z,26.74
2022-07-29T10:16:14.908Z,26.88
2022-07-29T10:17:17.360Z,26.96
2022-07-29T10:18:20.916Z,27.10
2022-07-29T10:19:22.759Z,27.22
2022-07-29T10:20:26.071Z,27.33
2022-07-29T10:21:35.434Z,27.39
2022-07-29T10:23:54.157Z,27.34
2022-07-29T10:25:00.987Z,27.15
2022-07-29T10:26:04.445Z,26.89
2022-07-29T10:27:09.240Z,26.91
2022-07-29T10:28:15.773Z,26.84
2022-07-29T10:29:17.870Z,26.91
2022-07-29T10:30:21.269Z,26.99
2022-07-29T10:31:30.698Z,27.10
2022-07-29T10:32:32.182Z,27.15
2022-07-29T10:34:08.143Z,27.25
2022-07-29T10:35:40.315Z,27.37
2022-07-29T10:36:55.934Z,27.53
2022-07-29T10:38:32.067Z,27.62
2022-07-29T10:40:31.175Z,27.72
2022-07-29T10:41:52.079Z,27.72
2022-07-29T10:42:54.934Z,27.66
2022-07-29T10:43:59.738Z,27.64
2022-07-29T10:45:04.366Z,27.61
2022-07-29T10:46:07.412Z,27.63
2022-07-29T10:47:20.114Z,27.69
2022-07-29T10:48:23.594Z,27.80
2022-07-29T10:49:30.734Z,27.92
2022-07-29T10:51:03.853Z,28.00
2022-07-29T10:52:06.695Z,28.02
2022-07-29T10:53:09.011Z,28.01
2022-07-29T10:54:17.016Z,28.02
2022-07-29T10:55:43.127Z,27.96
2022-07-29T10:56:45.326Z,27.92
2022-07-29T10:58:15.434Z,27.81
2022-07-29T10:59:22.813Z,27.74
2022-07-29T11:00:29.812Z,27.63
2022-07-29T11:01:37.442Z,27.66
2022-07-29T11:02:41.279Z,27.70
2022-07-29T11:03:53.752Z,27.72
2022-07-29T11:04:58.877Z,27.84
2022-07-29T11:06:00.419Z,27.94
2022-07-29T11:07:03.916Z,28.05
2022-07-29T11:08:20.308Z,28.15
2022-07-29T11:09:35.122Z,28.22
2022-07-29T11:10:41.222Z,28.20
2022-07-29T11:11:44.039Z,28.10
2022-07-29T11:12:53.443Z,28.19
2022-07-29T11:13:56.141Z,28.24
2022-07-29T11:15:03.498Z,28.10
2022-07-29T11:16:07.083Z,28.08
2022-07-29T11:17:10.073Z,28.13
2022-07-29T11:18:17.564Z,28.10
2022-07-29T11:19:26.456Z,28.12
2022-07-29T11:20:37.792Z,28.23
2022-07-29T11:21:54.056Z,28.30
2022-07-29T11:22:57.046Z,28.32
2022-07-29T11:24:13.642Z,28.27
2022-07-29T11:25:50.237Z,28.07
2022-07-29T11:26:42.921Z,28.15
2022-07-29T11:29:25.013Z,28.25
2022-07-29T11:30:52.232Z,28.17
2022-07-29T11:32:10.714Z,28.16
2022-07-29T11:33:54.535Z,28.08
2022-07-29T11:35:18.483Z,28.14
2022-07-29T11:36:28.254Z,28.15
2022-07-29T11:37:30.815Z,28.20
2022-07-29T11:38:33.412Z,28.22
2022-07-29T11:39:37.591Z,28.14
2022-07-29T11:40:39.269Z,28.01
2022-07-29T11:41:44.153Z,27.93
2022-07-29T11:42:47.313Z,27.93
2022-07-29T11:45:43.614Z,28.01
2022-07-29T11:46:46.892Z,27.78
2022-07-29T11:47:50.617Z,27.62
2022-07-29T11:48:52.799Z,27.46
2022-07-29T11:49:56.086Z,27.60
2022-07-29T11:51:09.754Z,27.55
2022-07-29T11:52:12.131Z,27.55
2022-07-29T11:53:15.522Z,27.63
2022-07-29T11:54:27.648Z,27.67
2022-07-29T11:55:32.420Z,27.67
2022-07-29T11:56:49.316Z,27.69
2022-07-29T11:58:04.394Z,27.71
2022-07-29T11:59:08.343Z,27.66
2022-07-29T12:00:12.519Z,27.60
2022-07-29T12:01:18.405Z,27.59
2022-07-29T12:02:36.594Z,27.57
2022-07-29T12:03:39.218Z,27.67
2022-07-29T12:04:55.256Z,27.75
2022-07-29T12:05:56.921Z,27.83
2022-07-29T12:07:00.382Z,27.80
2022-07-29T12:08:20.905Z,27.80
2022-07-29T12:09:23.472Z,27.91
2022-07-29T12:10:31.647Z,28.03
2022-07-29T12:11:35.020Z,28.02
2022-07-29T12:12:36.848Z,27.99
2022-07-29T12:13:40.993Z,28.05
2022-07-29T12:14:46.558Z,28.18
2022-07-29T12:15:55.654Z,28.14
2022-07-29T12:17:01.592Z,28.23
2022-07-29T12:18:15.784Z,28.24
2022-07-29T12:19:19.722Z,28.36
2022-07-29T12:20:29.510Z,28.48
2022-07-29T12:21:56.810Z,28.55
2022-07-29T12:22:58.792Z,28.63
2022-07-29T12:24:08.818Z,28.74
2022-07-29T12:25:32.869Z,28.95
2022-07-29T12:26:35.762Z,29.13
2022-07-29T12:27:40.447Z,29.23
2022-07-29T12:28:42.471Z,29.37
2022-07-29T12:30:03.336Z,29.54
2022-07-29T12:31:05.811Z,29.64
2022-07-29T12:32:14.587Z,29.55
2022-07-29T12:33:21.241Z,29.67
2022-07-29T12:34:27.653Z,29.44
2022-07-29T12:35:29.195Z,29.00
2022-07-29T12:36:31.357Z,28.97
2022-07-29T12:37:41.252Z,29.02
2022-07-29T12:38:45.394Z,29.00
2022-07-29T12:39:46.823Z,29.00
2022-07-29T12:40:49.676Z,29.17
2022-07-29T12:41:51.137Z,29.27
2022-07-29T12:43:16.033Z,29.55
2022-07-29T12:44:17.503Z,29.54
2022-07-29T12:45:29.623Z,29.33
2022-07-29T12:46:31.254Z,29.23
2022-07-29T12:47:33.335Z,29.20
2022-07-29T12:48:41.294Z,29.28
2022-07-29T12:49:42.874Z,29.06
2022-07-29T12:51:02.259Z,29.12
2022-07-29T12:52:26.350Z,29.24
2022-07-29T12:53:28.584Z,29.26
2022-07-29T12:54:30.379Z,29.32
2022-07-29T12:55:49.734Z,29.19
2022-07-29T12:57:00.716Z,29.17
2022-07-29T12:58:02.292Z,29.11
2022-07-29T12:59:22.089Z,29.03
2022-07-29T13:00:25.082Z,29.04
2022-07-29T13:01:28.231Z,29.07
2022-07-29T13:02:29.840Z,29.05
2022-07-29T13:03:57.039Z,29.08
2022-07-29T13:05:01.509Z,29.04
2022-07-29T13:06:02.957Z,29.01
2022-07-29T13:07:09.129Z,28.95
2022-07-29T13:08:20.431Z,28.96
2022-07-29T13:09:24.374Z,28.98
2022-07-29T13:10:26.080Z,28.99
2022-07-29T13:11:48.649Z,29.04
2022-07-29T13:13:03.026Z,29.16
2022-07-29T13:14:06.980Z,29.20
2022-07-29T13:15:16.369Z,29.24
2022-07-29T13:16:17.862Z,29.26
2022-07-29T13:17:23.847Z,29.34
2022-07-29T13:18:33.072Z,29.46
2022-07-29T13:19:43.947Z,29.65
2022-07-29T13:20:45.454Z,29.84
2022-07-29T13:21:46.895Z,30.01
2022-07-29T13:22:49.067Z,30.12
2022-07-29T13:23:50.786Z,30.19
2022-07-29T13:24:54.067Z,30.21
2022-07-29T13:25:55.499Z,30.14
2022-07-29T13:26:57.102Z,30.05
2022-07-29T13:27:59.957Z,29.88
2022-07-29T13:29:02.067Z,29.62
2022-07-29T13:30:06.749Z,29.47
2022-07-29T13:31:08.683Z,29.39
2022-07-29T13:32:10.363Z,29.34
2022-07-29T13:33:11.810Z,29.26
2022-07-29T13:34:13.380Z,29.41
2022-07-29T13:35:15.260Z,29.52
2022-07-29T13:36:16.955Z,29.47
2022-07-29T13:37:18.911Z,29.33
2022-07-29T13:38:20.382Z,29.37
2022-07-29T13:39:21.842Z,29.34
2022-07-29T13:40:23.620Z,29.14
2022-07-29T13:41:25.072Z,29.05
2022-07-29T13:42:27.590Z,28.92
2022-07-29T13:43:29.033Z,28.86
2022-07-29T13:44:30.563Z,28.90
2022-07-29T13:45:32.099Z,28.82
2022-07-29T13:46:33.937Z,28.79
2022-07-29T13:47:35.649Z,28.73
2022-07-29T13:48:37.194Z,28.79
2022-07-29T13:49:38.757Z,28.68
2022-07-29T13:50:40.589Z,28.62
2022-07-29T13:51:42.039Z,28.37
2022-07-29T13:52:43.919Z,28.29
2022-07-29T13:53:45.382Z,28.24
2022-07-29T13:54:47.907Z,28.39
2022-07-29T13:55:49.349Z,28.41
2022-07-29T13:56:51.577Z,28.42
2022-07-29T13:57:53.079Z,28.30
2022-07-29T13:58:54.512Z,28.33
2022-07-29T13:59:56.531Z,28.22
2022-07-29T14:01:01.749Z,28.11
2022-07-29T14:02:04.039Z,28.02
2022-07-29T14:03:05.492Z,27.87
2022-07-29T14:04:06.979Z,27.78
2022-07-29T14:05:11.030Z,27.80